Time;durP1;ratioP1;P1;durP2;ratioP2;P2;SDS_P1;SDS_P2;PMS_P1;PMS_P2;Temp;Humidity;BMP_temperature;BMP_pressure;BME280_temperature;BME280_humidity;BME280_pressure;Samples;Min_cycle;Max_cycle;Signal;HPM_P1;HPM_P2
2020/12/05 00:01:57;;;;;;;12.73;7.13;;;6.70;67.00;;;;;;5004374;28;20084;-80
2020/12/05 00:04:22;;;;;;;14.33;7.47;;;6.70;67.00;;;;;;5004765;28;20037;-79
2020/12/05 00:06:48;;;;;;;11.93;7.37;;;6.70;67.00;;;;;;5027110;28;20037;-79
2020/12/05 00:09:13;;;;;;;12.60;6.73;;;6.80;67.20;;;;;;5002333;28;20034;-77
2020/12/05 00:11:39;;;;;;;13.33;6.90;;;6.80;67.20;;;;;;4999616;28;20121;-79
2020/12/05 00:14:05;;;;;;;10.93;6.77;;;6.80;67.20;;;;;;5010858;28;20041;-79
2020/12/05 00:16:31;;;;;;;12.77;7.20;;;6.80;67.30;;;;;;5028347;28;20029;-79
2020/12/05 00:18:56;;;;;;;9.70;6.57;;;6.80;67.30;;;;;;5009266;28;20108;-79
2020/12/05 00:21:23;;;;;;;10.77;6.80;;;6.80;67.20;;;;;;5009483;28;20065;-80
2020/12/05 00:23:50;;;;;;;13.03;8.03;;;6.70;67.40;;;;;;5027777;28;20088;-79
2020/12/05 00:26:20;;;;;;;12.13;7.37;;;6.80;67.50;;;;;;5030177;28;20038;-79
2020/12/05 00:28:47;;;;;;;11.13;7.30;;;6.70;67.30;;;;;;5030227;28;20440;-80
2020/12/05 00:31:13;;;;;;;15.10;7.40;;;6.70;67.30;;;;;;5007849;28;20504;-78
2020/12/05 00:33:40;;;;;;;14.03;6.70;;;6.70;67.40;;;;;;5026064;28;20026;-79
2020/12/05 00:36:05;;;;;;;10.73;6.17;;;6.70;67.50;;;;;;5029888;28;20034;-78
2020/12/05 00:38:31;;;;;;;14.33;8.03;;;6.70;67.50;;;;;;5027480;28;20074;-79
2020/12/05 00:40:57;;;;;;;11.10;7.30;;;6.70;67.60;;;;;;5030231;28;20052;-79
2020/12/05 00:43:23;;;;;;;13.97;7.40;;;6.70;67.50;;;;;;5028671;28;20091;-79
2020/12/05 00:45:49;;;;;;;12.47;6.97;;;6.70;67.50;;;;;;5011997;28;20140;-77
2020/12/05 00:48:15;;;;;;;12.70;6.80;;;6.70;67.50;;;;;;4994679;28;20120;-76
2020/12/05 00:50:41;;;;;;;9.60;6.60;;;6.70;67.50;;;;;;5011651;28;20033;-77
2020/12/05 00:53:06;;;;;;;11.50;6.70;;;6.70;67.50;;;;;;5010852;28;20030;-75
2020/12/05 00:55:32;;;;;;;15.00;7.30;;;6.70;67.40;;;;;;5028117;28;20173;-79
2020/12/05 00:57:58;;;;;;;11.30;6.23;;;6.60;67.40;;;;;;5031573;28;20037;-77
2020/12/05 01:00:23;;;;;;;12.37;7.70;;;6.60;67.50;;;;;;5028170;28;20042;-77
2020/12/05 01:02:49;;;;;;;12.07;7.07;;;6.60;67.70;;;;;;5029237;28;20042;-77
2020/12/05 01:05:15;;;;;;;10.47;6.10;;;6.60;67.70;;;;;;5011168;28;20026;-76
2020/12/05 01:07:41;;;;;;;11.90;7.30;;;6.60;67.80;;;;;;5029904;28;20368;-77
2020/12/05 01:10:07;;;;;;;12.97;6.90;;;6.60;67.80;;;;;;5023673;28;20040;-77
2020/12/05 01:12:33;;;;;;;11.20;6.80;;;4.60;66.50;;;;;;5030179;28;20529;-77
2020/12/05 01:15:02;;;;;;;11.83;6.43;;;6.60;67.70;;;;;;5028796;28;20042;-77
2020/12/05 01:17:30;;;;;;;12.40;6.60;;;6.50;67.60;;;;;;5028782;28;20065;-77
2020/12/05 01:19:56;;;;;;;11.27;5.80;;;6.50;67.60;;;;;;5028335;28;20116;-77
2020/12/05 01:22:23;;;;;;;10.70;5.93;;;6.50;67.40;;;;;;5011504;28;20514;-77
2020/12/05 01:24:49;;;;;;;10.83;6.00;;;6.50;67.40;;;;;;5028671;28;20464;-77
2020/12/05 01:27:15;;;;;;;13.07;5.70;;;6.40;67.50;;;;;;5027957;28;20709;-77
2020/12/05 01:29:40;;;;;;;12.30;5.93;;;6.40;67.80;;;;;;5027890;28;20030;-77
2020/12/05 01:32:06;;;;;;;12.17;6.43;;;6.40;67.80;;;;;;5003700;28;20033;-77
2020/12/05 01:34:32;;;;;;;11.60;6.73;;;6.40;67.90;;;;;;5029348;28;20037;-77
2020/12/05 01:36:57;;;;;;;12.93;6.20;;;6.40;67.80;;;;;;5011942;28;20069;-77
2020/12/05 01:39:23;;;;;;;9.97;5.53;;;6.40;67.70;;;;;;5009832;28;20048;-77
2020/12/05 01:41:49;;;;;;;13.70;5.73;;;6.30;67.60;;;;;;4999293;28;20408;-77
2020/12/05 01:44:14;;;;;;;14.37;6.40;;;6.30;67.60;;;;;;4996085;28;20372;-78
2020/12/05 01:46:42;;;;;;;11.10;5.70;;;6.20;67.60;;;;;;5025591;28;20034;-77
2020/12/05 01:49:15;;;;;;;9.47;6.20;;;6.30;67.70;;;;;;5031933;28;20479;-77
2020/12/05 01:51:41;;;;;;;9.98;5.20;;;6.20;67.70;;;;;;5032076;28;20113;-77
2020/12/05 01:54:08;;;;;;;10.40;5.13;;;6.20;67.80;;;;;;5012518;28;20593;-77
2020/12/05 01:56:34;;;;;;;8.83;5.47;;;6.20;67.80;;;;;;5033355;28;20026;-76
2020/12/05 01:59:00;;;;;;;9.83;5.67;;;6.20;67.90;;;;;;5014646;28;20115;-77
2020/12/05 02:01:27;;;;;;;9.43;5.40;;;6.20;67.90;;;;;;5019314;28;20034;-77
2020/12/05 02:04:03;;;;;;;7.30;4.67;;;6.20;68.00;;;;;;5003861;28;20068;-77
2020/12/05 02:06:45;;;;;;;8.40;5.20;;;6.20;68.10;;;;;;4987666;28;20034;-77
2020/12/05 02:09:18;;;;;;;9.07;4.93;;;6.20;68.20;;;;;;5028603;28;20025;-77
2020/12/05 02:11:56;;;;;;;8.80;5.85;;;6.20;68.20;;;;;;5014523;28;20123;-77
2020/12/05 02:14:24;;;;;;;7.37;4.60;;;6.20;68.40;;;;;;5031440;28;20131;-77
2020/12/05 02:16:52;;;;;;;10.13;6.20;;;6.20;68.40;;;;;;5032640;28;20033;-79
2020/12/05 02:19:22;;;;;;;9.40;5.40;;;6.30;68.70;;;;;;5014106;28;20351;-78
2020/12/05 02:21:52;;;;;;;10.37;5.57;;;6.30;68.80;;;;;;5033514;28;20037;-78
2020/12/05 02:24:18;;;;;;;10.60;6.13;;;6.30;68.90;;;;;;5029961;28;20038;-78
2020/12/05 02:26:44;;;;;;;13.67;6.63;;;6.40;69.00;;;;;;4991195;28;20099;-78
2020/12/05 02:29:10;;;;;;;10.10;5.57;;;6.40;69.00;;;;;;5013218;28;20037;-78
2020/12/05 02:31:37;;;;;;;10.60;6.30;;;6.50;69.00;;;;;;5007877;28;20073;-78
2020/12/05 02:34:04;;;;;;;11.07;5.30;;;6.50;69.00;;;;;;5029927;28;20125;-77
2020/12/05 02:36:36;;;;;;;9.57;5.33;;;6.50;69.10;;;;;;5031854;28;20466;-78
2020/12/05 02:39:09;;;;;;;10.67;5.40;;;6.50;69.20;;;;;;5013799;28;20479;-78
2020/12/05 02:41:39;;;;;;;9.88;4.95;;;6.60;69.40;;;;;;5014118;28;20037;-78
2020/12/05 02:44:05;;;;;;;9.83;5.30;;;6.60;69.30;;;;;;5032641;28;20103;-78
2020/12/05 02:46:32;;;;;;;9.70;5.37;;;6.70;69.30;;;;;;5013555;28;20029;-79
2020/12/05 02:48:58;;;;;;;11.73;6.43;;;6.70;69.40;;;;;;5020374;28;20057;-78
2020/12/05 02:51:23;;;;;;;8.60;4.90;;;6.70;69.50;;;;;;5007991;28;20061;-78
2020/12/05 02:53:50;;;;;;;10.77;4.97;;;6.80;69.60;;;;;;5029653;28;20102;-78
2020/12/05 02:56:18;;;;;;;10.13;5.17;;;6.70;69.50;;;;;;5031117;28;20033;-78
2020/12/05 02:58:45;;;;;;;11.30;5.73;;;6.80;69.60;;;;;;5031560;28;20068;-78
2020/12/05 03:01:11;;;;;;;10.70;6.00;;;6.80;69.50;;;;;;5009658;28;20064;-77
2020/12/05 03:03:37;;;;;;;10.07;5.67;;;6.80;69.50;;;;;;5030153;28;20493;-79
2020/12/05 03:06:03;;;;;;;10.17;5.80;;;6.80;69.60;;;;;;5031652;28;20057;-78
2020/12/05 03:08:28;;;;;;;10.23;6.17;;;6.30;69.40;;;;;;5011891;28;20037;-78
2020/12/05 03:10:54;;;;;;;9.33;5.03;;;6.80;69.60;;;;;;5029826;28;20049;-78
2020/12/05 03:13:19;;;;;;;8.43;4.83;;;6.80;69.50;;;;;;5012631;28;20067;-78
2020/12/05 03:15:45;;;;;;;9.13;5.03;;;6.90;69.50;;;;;;5030416;28;20048;-78
2020/12/05 03:18:11;;;;;;;10.07;5.70;;;6.80;69.40;;;;;;5013176;28;20037;-78
2020/12/05 03:20:36;;;;;;;13.03;5.67;;;6.90;69.50;;;;;;5013463;28;20038;-78
2020/12/05 03:23:02;;;;;;;10.47;5.77;;;6.80;69.40;;;;;;5013578;28;20071;-78
2020/12/05 03:25:28;;;;;;;9.77;5.50;;;6.80;69.40;;;;;;5008743;28;20431;-78
2020/12/05 03:27:53;;;;;;;10.13;6.07;;;6.80;69.50;;;;;;5033152;28;20037;-78
2020/12/05 03:30:19;;;;;;;10.13;5.63;;;6.80;69.60;;;;;;5012010;28;20487;-79
2020/12/05 03:32:45;;;;;;;8.90;5.13;;;6.80;69.60;;;;;;5027363;28;20037;-78
2020/12/05 03:35:11;;;;;;;8.27;4.73;;;6.80;69.60;;;;;;5013558;28;20159;-78
2020/12/05 03:37:36;;;;;;;9.60;6.00;;;6.80;69.60;;;;;;5031023;28;20053;-78
2020/12/05 03:40:04;;;;;;;9.83;5.77;;;6.80;69.60;;;;;;5012746;28;20064;-78
2020/12/05 03:42:29;;;;;;;10.00;5.67;;;6.80;69.50;;;;;;5028470;28;20045;-78
2020/12/05 03:44:55;;;;;;;12.60;5.80;;;6.80;69.50;;;;;;5030852;28;20052;-78
2020/12/05 03:47:21;;;;;;;10.20;6.77;;;7.40;69.80;;;;;;5001101;28;20452;-78
2020/12/05 03:49:47;;;;;;;10.03;5.03;;;6.70;69.40;;;;;;5028376;28;20068;-80
2020/12/05 03:52:12;;;;;;;10.00;5.57;;;6.70;69.50;;;;;;5013015;28;20076;-76
2020/12/05 03:54:38;;;;;;;10.07;5.40;;;6.70;69.60;;;;;;5029368;28;20548;-78
2020/12/05 03:57:04;;;;;;;11.30;5.27;;;6.70;69.50;;;;;;5031584;28;20029;-79
2020/12/05 03:59:30;;;;;;;8.40;5.37;;;6.70;69.40;;;;;;5027794;28;20670;-78
2020/12/05 04:01:55;;;;;;;9.20;5.30;;;6.60;69.30;;;;;;5031195;28;20052;-78
2020/12/05 04:04:22;;;;;;;10.53;6.43;;;6.50;69.30;;;;;;5031153;28;20032;-79
2020/12/05 04:06:47;;;;;;;10.23;5.50;;;6.60;69.40;;;;;;5030084;28;20033;-78
2020/12/05 04:09:13;;;;;;;11.37;6.03;;;6.50;69.30;;;;;;5012009;28;20055;-77
2020/12/05 04:11:40;;;;;;;8.50;5.23;;;6.50;69.40;;;;;;5011170;28;20132;-79
2020/12/05 04:14:10;;;;;;;9.37;5.30;;;6.50;69.50;;;;;;4995989;28;20033;-78
2020/12/05 04:16:36;;;;;;;10.17;5.77;;;6.50;69.50;;;;;;5011989;28;20029;-78
2020/12/05 04:19:03;;;;;;;9.60;5.40;;;6.40;69.50;;;;;;5027621;28;20025;-78
2020/12/05 04:21:29;;;;;;;9.87;5.93;;;6.40;69.30;;;;;;5029680;28;20029;-79
2020/12/05 04:23:54;;;;;;;9.10;5.20;;;6.40;69.30;;;;;;4996007;28;20107;-78
2020/12/05 04:26:21;;;;;;;12.33;6.13;;;6.40;69.30;;;;;;5012514;28;20029;-79
2020/12/05 04:28:47;;;;;;;10.13;5.53;;;6.40;69.40;;;;;;5025879;28;20449;-79
2020/12/05 04:31:13;;;;;;;9.57;5.90;;;6.30;69.30;;;;;;5025454;28;20117;-77
2020/12/05 04:33:38;;;;;;;9.37;5.50;;;6.40;69.40;;;;;;5028969;28;20117;-77
2020/12/05 04:36:04;;;;;;;12.57;6.20;;;6.40;69.40;;;;;;5028716;28;20481;-78
2020/12/05 04:38:29;;;;;;;12.23;6.43;;;6.30;69.30;;;;;;4995734;28;20044;-78
2020/12/05 04:40:57;;;;;;;10.57;5.53;;;6.30;69.30;;;;;;5029588;28;20471;-78
2020/12/05 04:43:24;;;;;;;11.20;6.00;;;6.30;69.50;;;;;;5029083;28;20057;-78
2020/12/05 04:45:51;;;;;;;9.30;5.93;;;6.30;69.60;;;;;;5029555;28;20026;-79
2020/12/05 04:48:17;;;;;;;12.83;6.50;;;6.30;69.70;;;;;;5012385;28;20468;-79
2020/12/05 04:50:45;;;;;;;10.33;6.10;;;6.30;69.70;;;;;;5022653;28;20084;-79
2020/12/05 04:53:19;;;;;;;12.17;6.17;;;6.30;69.60;;;;;;5029246;28;20098;-78
2020/12/05 04:55:46;;;;;;;11.60;6.33;;;6.20;69.50;;;;;;5029455;28;20041;-78
2020/12/05 04:58:22;;;;;;;9.70;5.30;;;6.20;69.50;;;;;;5030331;28;20374;-78
2020/12/05 05:00:53;;;;;;;10.20;6.00;;;6.20;69.60;;;;;;5009573;28;20434;-78
2020/12/05 05:03:23;;;;;;;9.80;5.73;;;6.10;69.60;;;;;;5011929;28;20493;-78
2020/12/05 05:05:53;;;;;;;9.23;6.50;;;6.10;69.60;;;;;;5029671;28;20049;-78
2020/12/05 05:08:19;;;;;;;11.47;6.00;;;6.10;69.60;;;;;;5027732;28;20095;-78
2020/12/05 05:10:44;;;;;;;9.83;6.30;;;6.10;69.60;;;;;;5029291;28;20444;-78
2020/12/05 05:13:14;;;;;;;9.87;5.80;;;6.00;69.50;;;;;;5012016;28;20387;-78
2020/12/05 05:15:41;;;;;;;10.83;5.83;;;6.00;69.40;;;;;;5010790;28;20017;-78
2020/12/05 05:18:08;;;;;;;22.27;7.17;;;6.00;69.40;;;;;;5032411;28;20112;-78
2020/12/05 05:20:44;;;;;;;11.53;7.67;;;5.90;69.40;;;;;;5032990;28;20037;-78
2020/12/05 05:23:12;;;;;;;10.07;6.27;;;5.90;69.50;;;;;;4996762;28;20120;-78
2020/12/05 05:26:00;;;;;;;10.43;6.10;;;5.90;69.50;;;;;;5010292;28;20048;-79
2020/12/05 05:28:43;;;;;;;10.80;7.03;;;5.90;69.50;;;;;;5031600;28;20113;-78
2020/12/05 05:31:41;;;;;;;9.95;6.45;;;5.90;69.50;;;;;;4994147;28;20033;-78
2020/12/05 05:34:07;;;;;;;8.97;5.50;;;5.80;69.50;;;;;;5002657;28;20037;-78
2020/12/05 05:36:32;;;;;;;10.80;6.13;;;5.90;69.70;;;;;;5032888;28;20888;-78
2020/12/05 05:39:05;;;;;;;10.07;6.13;;;5.80;69.80;;;;;;5014384;28;20029;-78
2020/12/05 05:41:32;;;;;;;11.07;6.63;;;5.90;69.80;;;;;;5028874;28;20092;-78
2020/12/05 05:44:03;;;;;;;11.33;5.97;;;5.90;69.70;;;;;;5032536;28;20108;-78
2020/12/05 05:46:43;;;;;;;9.83;6.47;;;5.90;69.80;;;;;;5032239;28;20029;-78
2020/12/05 05:49:26;;;;;;;10.00;6.13;;;5.90;69.90;;;;;;5032891;28;20075;-78
2020/12/05 05:51:52;;;;;;;10.60;6.35;;;5.90;70.00;;;;;;5029575;28;20036;-77
2020/12/05 05:54:24;;;;;;;11.50;6.03;;;5.90;70.10;;;;;;5014096;28;20037;-78
2020/12/05 05:57:11;;;;;;;10.23;6.20;;;5.90;70.20;;;;;;5013972;28;20029;-78
2020/12/05 05:59:43;;;;;;;8.77;5.50;;;5.90;70.00;;;;;;5007266;28;20030;-78
2020/12/05 06:02:11;;;;;;;10.37;6.03;;;5.90;70.10;;;;;;5013792;28;20473;-78
2020/12/05 06:04:40;;;;;;;13.80;7.60;;;5.90;70.10;;;;;;5015837;28;20120;-78
2020/12/05 06:07:08;;;;;;;9.90;6.17;;;5.90;70.20;;;;;;5033031;28;20434;-78
2020/12/05 06:09:44;;;;;;;9.70;5.90;;;5.80;70.10;;;;;;5031061;28;20083;-79
2020/12/05 06:12:12;;;;;;;10.50;6.77;;;5.80;70.10;;;;;;5032520;28;20053;-78
2020/12/05 06:14:40;;;;;;;10.13;6.10;;;5.80;70.10;;;;;;5031787;28;20444;-78
2020/12/05 06:17:07;;;;;;;9.40;5.67;;;5.80;70.00;;;;;;5015301;28;20037;-79
2020/12/05 06:19:33;;;;;;;12.33;7.23;;;5.80;70.00;;;;;;5015221;28;20053;-78
2020/12/05 06:21:59;;;;;;;10.57;6.57;;;5.80;70.10;;;;;;5033807;28;20091;-78
2020/12/05 06:25:02;;;;;;;10.00;6.23;;;5.80;70.00;;;;;;5031022;28;20132;-78
2020/12/05 06:27:29;;;;;;;9.15;6.35;;;5.80;70.00;;;;;;4933215;29;20147;-78
2020/12/05 06:29:56;;;;;;;10.10;5.90;;;5.80;70.10;;;;;;5009099;28;20054;-78
2020/12/05 06:32:42;;;;;;;10.97;6.70;;;5.70;70.00;;;;;;5011820;28;20042;-79
2020/12/05 06:35:17;;;;;;;10.17;6.60;;;5.70;69.90;;;;;;5015357;28;20052;-78
2020/12/05 06:37:43;;;;;;;12.40;6.07;;;5.70;70.00;;;;;;5032268;28;20083;-78
2020/12/05 06:40:09;;;;;;;11.40;6.77;;;5.60;69.80;;;;;;5030492;28;20356;-78
2020/12/05 06:42:39;;;;;;;9.97;6.70;;;5.60;69.80;;;;;;5019906;28;20354;-78
2020/12/05 06:45:05;;;;;;;11.13;6.70;;;5.60;69.80;;;;;;4995869;28;20061;-78
2020/12/05 06:47:31;;;;;;;9.77;6.70;;;5.60;69.80;;;;;;5013387;28;20045;-78
2020/12/05 06:49:56;;;;;;;11.73;6.20;;;5.60;69.90;;;;;;5025686;28;20028;-78
2020/12/05 06:52:25;;;;;;;12.07;6.73;;;5.50;70.00;;;;;;5018153;28;20059;-78
2020/12/05 06:54:52;;;;;;;12.63;7.27;;;5.50;70.00;;;;;;5013303;28;20037;-78
2020/12/05 06:57:18;;;;;;;12.10;7.07;;;5.60;70.10;;;;;;5014832;28;20451;-78
2020/12/05 06:59:44;;;;;;;12.50;7.20;;;5.50;70.10;;;;;;5028595;28;20053;-77
2020/12/05 07:02:28;;;;;;;10.83;6.67;;;5.50;70.20;;;;;;5014586;28;20127;-78
2020/12/05 07:05:22;;;;;;;14.83;7.80;;;5.50;70.10;;;;;;5031978;28;20034;-78
2020/12/05 07:07:50;;;;;;;11.17;6.97;;;5.50;70.20;;;;;;5013445;28;20258;-78
2020/12/05 07:10:17;;;;;;;12.33;7.63;;;5.50;70.30;;;;;;5011953;28;20466;-78
2020/12/05 07:12:43;;;;;;;13.97;8.83;;;5.50;70.30;;;;;;5013331;28;20033;-78
2020/12/05 07:15:23;;;;;;;12.53;7.47;;;5.50;70.30;;;;;;4997128;28;20036;-77
2020/12/05 07:17:49;;;;;;;15.47;8.80;;;5.60;70.40;;;;;;5013401;28;20029;-78
2020/12/05 07:20:15;;;;;;;16.13;10.50;;;5.60;70.40;;;;;;5030495;28;20064;-77
2020/12/05 07:22:43;;;;;;;15.97;9.37;;;5.60;70.50;;;;;;5031354;28;20454;-77
2020/12/05 07:25:09;;;;;;;15.20;9.83;;;5.70;70.60;;;;;;5013570;28;20038;-78
2020/12/05 07:27:34;;;;;;;16.37;8.93;;;5.70;70.60;;;;;;5031178;28;20048;-78
2020/12/05 07:30:00;;;;;;;15.27;10.63;;;5.70;70.60;;;;;;5011595;28;20030;-78
2020/12/05 07:32:32;;;;;;;17.50;9.63;;;5.70;70.70;;;;;;5012985;28;20041;-78
2020/12/05 07:34:59;;;;;;;17.07;10.00;;;5.80;70.80;;;;;;5023722;28;20040;-78
2020/12/05 07:37:28;;;;;;;17.13;9.73;;;5.80;70.80;;;;;;5008084;28;20025;-78
2020/12/05 07:39:55;;;;;;;14.87;8.83;;;5.90;70.80;;;;;;5010265;28;20481;-77
2020/12/05 07:42:21;;;;;;;16.50;9.93;;;5.90;70.80;;;;;;5013673;28;20034;-78
2020/12/05 07:44:48;;;;;;;14.73;9.70;;;5.90;70.70;;;;;;5030029;28;20033;-78
2020/12/05 07:47:20;;;;;;;16.83;10.20;;;5.90;70.70;;;;;;5008664;28;20121;-76
2020/12/05 07:49:53;;;;;;;16.27;10.15;;;6.00;70.80;;;;;;5027586;28;20045;-77
2020/12/05 07:52:20;;;;;;;13.55;8.35;;;6.00;70.80;;;;;;5030083;28;20022;-78
2020/12/05 07:54:50;;;;;;;16.80;9.60;;;6.00;70.80;;;;;;5029009;28;20033;-76
2020/12/05 07:57:16;;;;;;;15.00;10.03;;;6.10;70.80;;;;;;5008195;28;20113;-77
2020/12/05 07:59:44;;;;;;;13.73;9.60;;;6.20;70.90;;;;;;5004004;28;20523;-78
2020/12/05 08:02:45;;;;;;;14.67;9.17;;;6.30;70.90;;;;;;5026283;28;20032;-78
2020/12/05 08:05:46;;;;;;;16.77;10.57;;;6.40;70.70;;;;;;4976742;28;20050;-78
2020/12/05 08:08:16;;;;;;;18.30;10.83;;;6.50;70.50;;;;;;5001249;28;20055;-78
2020/12/05 08:10:42;;;;;;;14.33;9.60;;;6.60;70.40;;;;;;5023904;28;20049;-78
2020/12/05 08:13:22;;;;;;;13.00;8.77;;;6.70;70.20;;;;;;5028728;28;20360;-77
2020/12/05 08:16:07;;;;;;;13.57;9.00;;;6.70;70.10;;;;;;5005452;28;20041;-79
2020/12/05 08:18:36;;;;;;;14.20;8.23;;;6.80;70.00;;;;;;5007737;28;20040;-78
2020/12/05 08:21:04;;;;;;;13.40;8.90;;;6.80;69.90;;;;;;5028661;28;20347;-78
2020/12/05 08:23:37;;;;;;;15.03;10.10;;;6.80;70.00;;;;;;5027176;28;20045;-78
2020/12/05 08:26:06;;;;;;;19.85;10.35;;;6.90;70.10;;;;;;5011919;28;20048;-79
2020/12/05 08:28:37;;;;;;;18.33;11.03;;;6.90;70.10;;;;;;5027309;28;20128;-78
2020/12/05 08:31:05;;;;;;;15.63;9.87;;;6.90;70.10;;;;;;5007587;28;20030;-78
2020/12/05 08:33:31;;;;;;;15.73;9.60;;;7.00;70.30;;;;;;5020792;28;20313;-78
2020/12/05 08:35:57;;;;;;;15.50;9.07;;;7.30;70.80;;;;;;5026614;28;20045;-79
2020/12/05 08:38:24;;;;;;;17.23;10.80;;;8.40;69.40;;;;;;5025163;28;20478;-79
2020/12/05 08:41:01;;;;;;;14.03;9.93;;;9.70;66.20;;;;;;5025517;28;20159;-78
2020/12/05 08:43:27;;;;;;;14.27;9.63;;;10.90;62.30;;;;;;5004228;28;20525;-79
2020/12/05 08:45:53;;;;;;;14.18;9.93;;;11.80;59.10;;;;;;5023133;28;21293;-79
2020/12/05 08:48:19;;;;;;;15.15;9.88;;;12.40;57.00;;;;;;4990158;28;20032;-79
2020/12/05 08:50:46;;;;;;;15.43;9.45;;;12.60;55.90;;;;;;5028780;28;20041;-79
2020/12/05 08:53:13;;;;;;;12.85;8.45;;;12.50;55.70;;;;;;5007823;28;20479;-79
2020/12/05 08:55:45;;;;;;;12.38;8.88;;;12.10;55.60;;;;;;5007621;28;20059;-79
2020/12/05 08:58:10;;;;;;;11.98;7.70;;;11.50;56.40;;;;;;5013166;28;20033;-79
2020/12/05 09:00:36;;;;;;;12.43;8.25;;;11.10;57.60;;;;;;5005803;28;20064;-79
2020/12/05 09:03:03;;;;;;;12.15;7.78;;;10.70;58.50;;;;;;5012684;28;20045;-79
2020/12/05 09:05:29;;;;;;;11.85;7.97;;;10.40;59.40;;;;;;5029928;28;20029;-79
2020/12/05 09:08:00;;;;;;;10.38;7.22;;;10.00;60.20;;;;;;4995864;28;20501;-78
2020/12/05 09:10:28;;;;;;;14.73;8.32;;;9.90;61.00;;;;;;5029557;28;20029;-78
2020/12/05 09:13:05;;;;;;;11.65;7.53;;;9.70;61.70;;;;;;5011001;28;20029;-79
2020/12/05 09:15:31;;;;;;;12.45;7.78;;;9.50;62.30;;;;;;5012383;28;20147;-78
2020/12/05 09:17:57;;;;;;;14.68;7.18;;;9.30;62.90;;;;;;5010964;28;20153;-78
2020/12/05 09:20:23;;;;;;;11.13;6.63;;;9.10;63.50;;;;;;5010699;28;20030;-78
2020/12/05 09:22:56;;;;;;;10.60;6.55;;;9.00;64.00;;;;;;5006548;28;20030;-80
2020/12/05 09:25:34;;;;;;;9.77;5.97;;;9.00;64.50;;;;;;5027286;28;20029;-79
2020/12/05 09:28:02;;;;;;;10.20;6.63;;;8.90;65.00;;;;;;5026789;28;20021;-79
2020/12/05 09:30:29;;;;;;;10.70;6.50;;;8.90;65.20;;;;;;5006730;28;20029;-76
2020/12/05 09:32:55;;;;;;;10.20;6.90;;;8.90;65.50;;;;;;5016383;28;20048;-74
2020/12/05 09:35:22;;;;;;;10.00;6.40;;;8.80;65.90;;;;;;5031252;28;20075;-77
2020/12/05 09:37:49;;;;;;;11.20;6.85;;;8.70;66.00;;;;;;5031540;28;20120;-76
2020/12/05 09:40:17;;;;;;;11.80;5.70;;;8.70;66.30;;;;;;5007486;28;20458;-76
2020/12/05 09:42:43;;;;;;;9.88;5.50;;;8.60;66.30;;;;;;5027102;28;20553;-77
2020/12/05 09:45:11;;;;;;;11.50;6.57;;;8.70;66.60;;;;;;5010228;28;20493;-77
2020/12/05 09:47:37;;;;;;;8.20;5.13;;;8.60;66.60;;;;;;5028971;28;20611;-77
2020/12/05 09:50:04;;;;;;;11.38;6.32;;;8.60;66.70;;;;;;5013782;28;20059;-77
2020/12/05 09:52:30;;;;;;;9.10;6.45;;;8.60;66.90;;;;;;5031363;28;20049;-77
2020/12/05 09:54:55;;;;;;;11.52;6.60;;;8.60;66.90;;;;;;5030139;28;20453;-78
2020/12/05 09:57:21;;;;;;;9.07;5.75;;;8.60;66.90;;;;;;5011772;28;20430;-76
2020/12/05 09:59:47;;;;;;;10.93;5.85;;;8.70;66.80;;;;;;5011747;28;20040;-75
2020/12/05 10:02:13;;;;;;;9.90;5.70;;;8.70;66.70;;;;;;5014043;28;20034;-75
2020/12/05 10:04:38;;;;;;;8.70;5.47;;;8.80;66.70;;;;;;5021403;28;20386;-72
2020/12/05 10:07:05;;;;;;;10.45;6.65;;;8.80;66.70;;;;;;5031398;28;20036;-73
2020/12/05 10:09:31;;;;;;;9.70;5.55;;;8.80;66.70;;;;;;5030585;28;20036;-74
2020/12/05 10:11:56;;;;;;;9.40;5.32;;;8.80;66.60;;;;;;4996362;28;20481;-75
2020/12/05 10:14:22;;;;;;;8.52;5.20;;;8.90;66.20;;;;;;5026066;28;20029;-74
2020/12/05 10:16:48;;;;;;;9.32;5.43;;;8.90;66.30;;;;;;5002801;28;20069;-74
2020/12/05 10:19:13;;;;;;;9.07;5.25;;;8.80;66.10;;;;;;5010809;28;20025;-74
2020/12/05 10:21:39;;;;;;;9.70;4.55;;;8.80;66.10;;;;;;5029192;28;20037;-74
2020/12/05 10:24:05;;;;;;;8.15;5.20;;;8.80;66.40;;;;;;5030089;28;20125;-74
2020/12/05 10:26:31;;;;;;;7.82;4.72;;;8.80;66.40;;;;;;5011956;28;20068;-74
2020/12/05 10:28:56;;;;;;;11.88;5.20;;;8.90;66.20;;;;;;5012664;28;20079;-73
2020/12/05 10:31:22;;;;;;;9.10;4.70;;;8.80;65.80;;;;;;5031030;28;20402;-74
2020/12/05 10:33:47;;;;;;;8.13;4.70;;;8.80;66.00;;;;;;5031999;28;20037;-74
2020/12/05 10:36:18;;;;;;;7.80;4.45;;;8.80;65.90;;;;;;5009385;28;20034;-74
2020/12/05 10:38:44;;;;;;;7.40;4.45;;;8.90;66.00;;;;;;5013703;28;20022;-74
2020/12/05 10:41:12;;;;;;;8.40;4.40;;;8.90;65.90;;;;;;5013270;28;20041;-74
2020/12/05 10:43:37;;;;;;;7.82;4.63;;;8.90;65.80;;;;;;5013449;28;20033;-73
2020/12/05 10:46:03;;;;;;;6.82;4.05;;;9.00;65.70;;;;;;5010603;28;20439;-74
2020/12/05 10:48:29;;;;;;;7.93;4.35;;;9.00;65.60;;;;;;5001263;28;20025;-74
2020/12/05 10:50:59;;;;;;;7.35;3.97;;;9.00;65.50;;;;;;5014503;28;20550;-74
2020/12/05 10:53:25;;;;;;;8.25;4.32;;;9.00;65.60;;;;;;5030038;28;20021;-75
2020/12/05 10:55:51;;;;;;;7.10;4.25;;;9.10;65.60;;;;;;5031810;28;20215;-74
2020/12/05 10:58:17;;;;;;;8.52;4.40;;;9.10;65.60;;;;;;5012748;28;20029;-74
2020/12/05 11:00:42;;;;;;;10.80;4.65;;;9.10;65.60;;;;;;5014419;28;20038;-74
2020/12/05 11:03:08;;;;;;;8.13;4.50;;;9.20;65.00;;;;;;5014383;28;20037;-74
2020/12/05 11:05:33;;;;;;;7.95;4.78;;;9.10;65.00;;;;;;5031858;28;20422;-74
2020/12/05 11:07:59;;;;;;;9.65;5.05;;;9.10;65.10;;;;;;5032010;28;20033;-74
2020/12/05 11:10:25;;;;;;;6.78;4.05;;;9.00;65.00;;;;;;4992342;28;20030;-74
2020/12/05 11:12:50;;;;;;;9.18;5.38;;;9.20;65.10;;;;;;5011157;28;20038;-74
2020/12/05 11:15:16;;;;;;;9.70;5.13;;;9.20;65.00;;;;;;5012384;28;20056;-74
2020/12/05 11:17:42;;;;;;;9.50;4.38;;;9.30;64.80;;;;;;5020322;28;20041;-74
2020/12/05 11:20:07;;;;;;;8.88;5.13;;;9.30;64.90;;;;;;4978721;28;20176;-74
2020/12/05 11:22:33;;;;;;;8.27;4.80;;;9.40;64.50;;;;;;5018718;28;20041;-74
2020/12/05 11:24:59;;;;;;;6.25;3.70;;;9.40;64.50;;;;;;5030597;28;20128;-73
2020/12/05 11:27:24;;;;;;;7.00;4.30;;;9.50;64.50;;;;;;5030459;28;20371;-74
2020/12/05 11:29:51;;;;;;;6.28;3.65;;;9.50;64.20;;;;;;5031410;28;20106;-74
2020/12/05 11:32:17;;;;;;;7.15;4.22;;;9.70;63.60;;;;;;5020178;28;20045;-74
2020/12/05 11:34:42;;;;;;;7.57;4.15;;;9.80;63.00;;;;;;5025782;28;20035;-75
2020/12/05 11:37:08;;;;;;;7.43;3.97;;;9.90;62.80;;;;;;5031236;28;20486;-71
2020/12/05 11:39:33;;;;;;;7.30;3.97;;;6.90;60.70;;;;;;5007216;28;20542;-74
2020/12/05 11:41:59;;;;;;;6.82;3.70;;;10.10;62.20;;;;;;4997891;28;20034;-73
2020/12/05 11:44:25;;;;;;;7.63;4.22;;;10.10;61.10;;;;;;5013066;28;20106;-75
2020/12/05 11:46:53;;;;;;;8.10;3.80;;;10.00;60.90;;;;;;5031231;28;20087;-75
2020/12/05 11:49:20;;;;;;;7.30;4.13;;;10.00;60.70;;;;;;5014932;28;20108;-73
2020/12/05 11:51:45;;;;;;;9.80;4.10;;;10.00;60.90;;;;;;5032367;28;20413;-73
2020/12/05 11:54:11;;;;;;;5.82;3.15;;;10.00;61.20;;;;;;5012547;28;20029;-74
2020/12/05 11:56:38;;;;;;;6.90;3.75;;;10.10;61.40;;;;;;5024795;28;20104;-75
2020/12/05 11:59:04;;;;;;;6.70;3.72;;;10.10;60.50;;;;;;5031901;28;20092;-73
2020/12/05 12:01:29;;;;;;;8.95;3.20;;;10.10;60.30;;;;;;5013068;28;20116;-75
2020/12/05 12:03:56;;;;;;;7.85;2.90;;;10.10;59.70;;;;;;5033055;28;20119;-75
2020/12/05 12:06:21;;;;;;;5.93;3.22;;;10.00;59.80;;;;;;5030985;28;20045;-73
2020/12/05 12:08:47;;;;;;;7.63;3.70;;;10.00;60.30;;;;;;5012705;28;20041;-72
2020/12/05 12:11:19;;;;;;;6.70;3.80;;;10.10;60.20;;;;;;5025677;28;20037;-72
2020/12/05 12:13:44;;;;;;;8.70;4.03;;;10.10;59.90;;;;;;5013688;28;20034;-71
2020/12/05 12:16:14;;;;;;;8.40;3.60;;;10.10;59.10;;;;;;5031100;28;20041;-72
2020/12/05 12:18:40;;;;;;;8.05;4.00;;;10.10;59.20;;;;;;5031277;28;20025;-73
2020/12/05 12:21:06;;;;;;;6.43;3.55;;;10.10;59.60;;;;;;4999986;28;20376;-75
2020/12/05 12:23:32;;;;;;;6.60;3.42;;;10.20;59.80;;;;;;4985215;28;20038;-76
2020/12/05 12:25:58;;;;;;;7.30;3.72;;;10.20;59.20;;;;;;4996575;28;20045;-74
2020/12/05 12:28:24;;;;;;;7.03;3.78;;;10.20;59.30;;;;;;5031523;28;20100;-73
2020/12/05 12:30:49;;;;;;;6.18;3.72;;;10.20;59.00;;;;;;5005649;28;20116;-73
2020/12/05 12:33:15;;;;;;;6.13;3.92;;;10.20;58.70;;;;;;5028131;28;20040;-80
2020/12/05 12:35:40;;;;;;;11.65;4.88;;;10.20;58.70;;;;;;5006194;28;20117;-77
2020/12/05 12:38:06;;;;;;;5.82;3.28;;;10.20;59.20;;;;;;5029418;28;20360;-75
2020/12/05 12:40:32;;;;;;;6.13;3.65;;;10.20;59.20;;;;;;5028389;28;20438;-75
2020/12/05 12:42:58;;;;;;;7.25;4.18;;;10.30;59.30;;;;;;4996439;28;20065;-77
2020/12/05 12:45:32;;;;;;;13.90;5.88;;;10.30;58.90;;;;;;5029557;28;20073;-76
2020/12/05 12:48:37;;;;;;;;;;;10.20;59.40;;;;;;4996232;28;20491;-77
2020/12/05 12:50:46;;;;;;;21.20;9.02;;;10.30;58.70;;;;;;5029457;28;19967;-81
2020/12/05 12:53:12;;;;;;;13.18;5.78;;;10.40;58.90;;;;;;5031647;28;20029;-81
2020/12/05 12:55:38;;;;;;;11.98;5.97;;;10.40;58.60;;;;;;5012198;28;20045;-81